KMVE/MVE METAR and TAF weather

Enter ICAO airport designator
Station Type Date Time Source
KMVE METAR 2019/06/17 05:16 UTC NOAA

KMVE 170516Z AUTO 00000KT 10SM CLR 18/11 A2993 RMK AO2


Station Type Date Time Source
KMVE Decoded METAR 2019/06/17 05:16 UTC NOAA

Montevideo, Montevideo-Chippewa County Airport, MN, United States (KMVE) 44-58N 095-43W
Jun 17, 2019 - 01:16 AM EDT / 2019.06.17 0516 UTC
Wind: Calm:0
Visibility: 10 mile(s):0
Sky conditions: clear
Temperature: 64 F (18 C)
Dew Point: 51 F (11 C)
Relative Humidity: 63%
Pressure (altimeter): 29.93 in. Hg (1013 hPa)
ob: KMVE 170516Z AUTO 00000KT 10SM CLR 18/11 A2993 RMK AO2
cycle: 5

Station Type Date Time Source
KMVE TAF UTC NOAA

Error!

Example: see airport list